sensor_id;sensor_type;location;lat;lon;timestamp;pressure;altitude;pressure_sealevel;temperature;humidity
62617;BME280;62539;51.190;6.808;2023-04-30T00:01:38;101913.50;;;20.05;53.38
62617;BME280;62539;51.190;6.808;2023-04-30T00:04:04;101924.94;;;20.04;53.61
62617;BME280;62539;51.190;6.808;2023-04-30T00:06:30;101928.47;;;20.03;53.67
62617;BME280;62539;51.190;6.808;2023-04-30T00:08:56;101925.00;;;20.02;53.57
62617;BME280;62539;51.190;6.808;2023-04-30T00:11:21;101926.75;;;20.02;53.58
62617;BME280;62539;51.190;6.808;2023-04-30T00:13:46;101933.81;;;20.00;53.64
62617;BME280;62539;51.190;6.808;2023-04-30T00:16:12;101926.81;;;19.98;53.49
62617;BME280;62539;51.190;6.808;2023-04-30T00:18:38;101930.34;;;19.97;53.63
62617;BME280;62539;51.190;6.808;2023-04-30T00:21:03;101927.75;;;19.96;53.81
62617;BME280;62539;51.190;6.808;2023-04-30T00:23:29;101936.56;;;19.95;53.59
62617;BME280;62539;51.190;6.808;2023-04-30T00:25:54;101931.31;;;19.93;53.79
62617;BME280;62539;51.190;6.808;2023-04-30T00:28:20;101932.22;;;19.92;53.49
62617;BME280;62539;51.190;6.808;2023-04-30T00:30:45;101934.91;;;19.91;53.70
62617;BME280;62539;51.190;6.808;2023-04-30T00:33:11;101948.09;;;19.89;53.73
62617;BME280;62539;51.190;6.808;2023-04-30T00:35:36;101941.03;;;19.88;53.63
62617;BME280;62539;51.190;6.808;2023-04-30T00:38:02;101947.22;;;19.87;53.80
62617;BME280;62539;51.190;6.808;2023-04-30T00:40:27;101943.72;;;19.87;53.80
62617;BME280;62539;51.190;6.808;2023-04-30T00:42:53;101944.66;;;19.84;53.83
62617;BME280;62539;51.190;6.808;2023-04-30T00:45:20;101942.91;;;19.83;53.56
62617;BME280;62539;51.190;6.808;2023-04-30T00:47:47;101947.31;;;19.82;53.88
62617;BME280;62539;51.190;6.808;2023-04-30T00:50:14;101943.88;;;19.80;53.94
62617;BME280;62539;51.190;6.808;2023-04-30T00:52:43;101947.41;;;19.79;53.68
62617;BME280;62539;51.190;6.808;2023-04-30T00:55:10;101943.88;;;19.79;53.95
62617;BME280;62539;51.190;6.808;2023-04-30T00:57:37;101945.69;;;19.77;53.77
62617;BME280;62539;51.190;6.808;2023-04-30T01:00:05;101941.31;;;19.76;53.83
62617;BME280;62539;51.190;6.808;2023-04-30T01:02:35;101944.00;;;19.74;53.84
62617;BME280;62539;51.190;6.808;2023-04-30T01:05:02;101946.63;;;19.73;53.80
62617;BME280;62539;51.190;6.808;2023-04-30T01:07:29;101948.44;;;19.71;53.70
62617;BME280;62539;51.190;6.808;2023-04-30T01:09:56;101948.44;;;19.71;53.97
62617;BME280;62539;51.190;6.808;2023-04-30T01:12:36;101942.34;;;19.68;53.80
62617;BME280;62539;51.190;6.808;2023-04-30T01:15:13;101943.22;;;19.67;54.05
62617;BME280;62539;51.190;6.808;2023-04-30T01:18:04;101937.97;;;19.67;53.90
62617;BME280;62539;51.190;6.808;2023-04-30T01:20:49;101944.19;;;19.65;54.13
62617;BME280;62539;51.190;6.808;2023-04-30T01:29:38;101936.44;;;19.57;53.99
62617;BME280;62539;51.190;6.808;2023-04-30T01:32:09;101942.59;;;19.56;54.04
62617;BME280;62539;51.190;6.808;2023-04-30T01:34:35;101935.59;;;19.55;54.05
62617;BME280;62539;51.190;6.808;2023-04-30T01:42:41;101936.53;;;19.51;54.16
62617;BME280;62539;51.190;6.808;2023-04-30T01:51:02;101945.41;;;19.47;54.23
62617;BME280;62539;51.190;6.808;2023-04-30T01:53:42;101945.41;;;19.47;54.21
62617;BME280;62539;51.190;6.808;2023-04-30T01:56:26;101953.34;;;19.45;54.10
62617;BME280;62539;51.190;6.808;2023-04-30T01:58:55;101947.19;;;19.45;54.30
62617;BME280;62539;51.190;6.808;2023-04-30T02:01:29;101947.25;;;19.43;54.16
62617;BME280;62539;51.190;6.808;2023-04-30T02:03:56;101939.34;;;19.42;54.26
62617;BME280;62539;51.190;6.808;2023-04-30T02:06:23;101934.09;;;19.42;54.19
62617;BME280;62539;51.190;6.808;2023-04-30T02:08:56;101940.25;;;19.41;54.42
62617;BME280;62539;51.190;6.808;2023-04-30T02:11:27;101938.53;;;19.39;54.32
62617;BME280;62539;51.190;6.808;2023-04-30T02:13:53;101932.41;;;19.39;54.38
62617;BME280;62539;51.190;6.808;2023-04-30T02:16:19;101931.53;;;19.38;54.27
62617;BME280;62539;51.190;6.808;2023-04-30T02:18:44;101935.06;;;19.37;54.23
62617;BME280;62539;51.190;6.808;2023-04-30T02:21:10;101938.59;;;19.36;54.38
62617;BME280;62539;51.190;6.808;2023-04-30T02:23:36;101938.59;;;19.36;54.45
62617;BME280;62539;51.190;6.808;2023-04-30T02:26:01;101935.13;;;19.34;54.19
62617;BME280;62539;51.190;6.808;2023-04-30T02:28:27;101936.84;;;19.35;54.18
62617;BME280;62539;51.190;6.808;2023-04-30T02:30:53;101938.63;;;19.33;54.46
62617;BME280;62539;51.190;6.808;2023-04-30T02:33:18;101941.28;;;19.33;54.41
62617;BME280;62539;51.190;6.808;2023-04-30T02:35:44;101942.16;;;19.32;54.31
62617;BME280;62539;51.190;6.808;2023-04-30T02:38:10;101939.59;;;19.31;54.32
62617;BME280;62539;51.190;6.808;2023-04-30T02:40:35;101946.59;;;19.30;54.41
62617;BME280;62539;51.190;6.808;2023-04-30T02:43:01;101947.50;;;19.29;54.41
62617;BME280;62539;51.190;6.808;2023-04-30T02:45:26;101937.88;;;19.28;54.54
62617;BME280;62539;51.190;6.808;2023-04-30T02:47:52;101939.63;;;19.28;54.68
62617;BME280;62539;51.190;6.808;2023-04-30T02:50:17;101941.44;;;19.26;54.33
62617;BME280;62539;51.190;6.808;2023-04-30T02:52:44;101937.91;;;19.25;54.30
62617;BME280;62539;51.190;6.808;2023-04-30T02:55:11;101930.94;;;19.24;54.51
62617;BME280;62539;51.190;6.808;2023-04-30T02:57:37;101940.59;;;19.23;54.49
62617;BME280;62539;51.190;6.808;2023-04-30T03:00:03;101937.97;;;19.22;54.27
62617;BME280;62539;51.190;6.808;2023-04-30T03:02:29;101941.50;;;19.21;54.49
62617;BME280;62539;51.190;6.808;2023-04-30T03:04:55;101929.25;;;19.20;54.52
62617;BME280;62539;51.190;6.808;2023-04-30T03:07:20;101935.41;;;19.19;54.52
62617;BME280;62539;51.190;6.808;2023-04-30T03:09:46;101935.41;;;19.19;54.98
62617;BME280;62539;51.190;6.808;2023-04-30T03:12:11;101937.19;;;19.17;54.62
62617;BME280;62539;51.190;6.808;2023-04-30T03:14:38;101942.47;;;19.17;54.52
62617;BME280;62539;51.190;6.808;2023-04-30T03:17:04;101940.72;;;19.16;54.78
62617;BME280;62539;51.190;6.808;2023-04-30T03:19:29;101944.25;;;19.15;54.62
62617;BME280;62539;51.190;6.808;2023-04-30T03:21:55;101946.03;;;19.13;54.66
62617;BME280;62539;51.190;6.808;2023-04-30T03:24:20;101940.78;;;19.13;54.64
62617;BME280;62539;51.190;6.808;2023-04-30T03:26:46;101939.94;;;19.12;54.50
62617;BME280;62539;51.190;6.808;2023-04-30T03:29:11;101941.72;;;19.10;54.66
62617;BME280;62539;51.190;6.808;2023-04-30T03:31:37;101946.09;;;19.09;54.33
62617;BME280;62539;51.190;6.808;2023-04-30T03:34:02;101944.34;;;19.08;54.70
62617;BME280;62539;51.190;6.808;2023-04-30T03:36:28;101939.09;;;19.08;54.81
62617;BME280;62539;51.190;6.808;2023-04-30T03:38:53;101937.38;;;19.07;54.74
62617;BME280;62539;51.190;6.808;2023-04-30T03:41:19;101939.16;;;19.05;54.71
62617;BME280;62539;51.190;6.808;2023-04-30T03:43:44;101939.16;;;19.05;54.71
62617;BME280;62539;51.190;6.808;2023-04-30T03:46:10;101943.56;;;19.05;54.78
62617;BME280;62539;51.190;6.808;2023-04-30T03:48:35;101941.81;;;19.04;54.75
62617;BME280;62539;51.190;6.808;2023-04-30T03:51:01;101943.63;;;19.02;54.69
62617;BME280;62539;51.190;6.808;2023-04-30T03:53:26;101938.34;;;19.02;54.88
62617;BME280;62539;51.190;6.808;2023-04-30T03:55:52;101938.38;;;19.00;54.54
62617;BME280;62539;51.190;6.808;2023-04-30T03:58:19;101942.78;;;19.00;54.82
62617;BME280;62539;51.190;6.808;2023-04-30T04:00:46;101941.91;;;18.99;54.83
62617;BME280;62539;51.190;6.808;2023-04-30T04:03:13;101943.69;;;18.97;54.86
62617;BME280;62539;51.190;6.808;2023-04-30T04:05:39;101946.31;;;18.97;54.80
62617;BME280;62539;51.190;6.808;2023-04-30T04:08:05;101946.31;;;18.95;54.69
62617;BME280;62539;51.190;6.808;2023-04-30T04:10:32;101948.03;;;18.98;54.28
62617;BME280;62539;51.190;6.808;2023-04-30T04:12:58;101946.25;;;19.00;54.20
62617;BME280;62539;51.190;6.808;2023-04-30T04:15:23;101947.09;;;19.02;54.04
62617;BME280;62539;51.190;6.808;2023-04-30T04:17:49;101946.16;;;19.06;54.44
62617;BME280;62539;51.190;6.808;2023-04-30T04:20:15;101949.59;;;19.10;54.59
62617;BME280;62539;51.190;6.808;2023-04-30T04:22:41;101947.78;;;19.14;54.57
62617;BME280;62539;51.190;6.808;2023-04-30T04:25:07;101950.34;;;19.18;54.39
62617;BME280;62539;51.190;6.808;2023-04-30T04:27:34;101952.88;;;19.23;54.73
62617;BME280;62539;51.190;6.808;2023-04-30T04:30:02;101956.28;;;19.28;54.79
62617;BME280;62539;51.190;6.808;2023-04-30T04:32:27;101949.22;;;19.32;54.62
62617;BME280;62539;51.190;6.808;2023-04-30T04:34:54;101957.00;;;19.36;54.55
62617;BME280;62539;51.190;6.808;2023-04-30T04:37:21;101949.94;;;19.38;54.49
62617;BME280;62539;51.190;6.808;2023-04-30T04:39:46;101952.53;;;19.42;54.56
62617;BME280;62539;51.190;6.808;2023-04-30T04:42:12;101962.97;;;19.45;54.56
62617;BME280;62539;51.190;6.808;2023-04-30T04:44:38;101954.19;;;19.46;54.39
62617;BME280;62539;51.190;6.808;2023-04-30T04:47:05;101953.28;;;19.48;54.36
62617;BME280;62539;51.190;6.808;2023-04-30T04:49:30;101959.41;;;19.49;54.12
62617;BME280;62539;51.190;6.808;2023-04-30T04:51:56;101964.59;;;19.52;54.49
62617;BME280;62539;51.190;6.808;2023-04-30T04:54:21;101974.28;;;19.51;54.64
62617;BME280;62539;51.190;6.808;2023-04-30T04:56:46;101969.88;;;19.52;54.40
62617;BME280;62539;51.190;6.808;2023-04-30T04:59:12;101975.97;;;19.54;54.40
62617;BME280;62539;51.190;6.808;2023-04-30T05:01:37;101978.59;;;19.56;54.48
62617;BME280;62539;51.190;6.808;2023-04-30T05:04:03;101973.31;;;19.56;54.35
62617;BME280;62539;51.190;6.808;2023-04-30T05:06:28;101973.28;;;19.57;54.03
62617;BME280;62539;51.190;6.808;2023-04-30T05:08:54;101968.00;;;19.59;54.34
62617;BME280;62539;51.190;6.808;2023-04-30T05:11:20;101973.22;;;19.60;54.42
62617;BME280;62539;51.190;6.808;2023-04-30T05:13:46;101969.69;;;19.61;54.36
62617;BME280;62539;51.190;6.808;2023-04-30T05:16:12;101976.69;;;19.62;54.26
62617;BME280;62539;51.190;6.808;2023-04-30T05:18:37;101979.31;;;19.62;54.18
62617;BME280;62539;51.190;6.808;2023-04-30T05:21:03;101988.09;;;19.63;54.21
62617;BME280;62539;51.190;6.808;2023-04-30T05:23:28;101990.69;;;19.64;54.24
62617;BME280;62539;51.190;6.808;2023-04-30T05:25:54;101996.81;;;19.65;54.37
62617;BME280;62539;51.190;6.808;2023-04-30T05:28:19;101995.03;;;19.65;54.58
62617;BME280;62539;51.190;6.808;2023-04-30T05:30:45;102001.16;;;19.67;54.48
62617;BME280;62539;51.190;6.808;2023-04-30T05:33:10;102000.31;;;19.67;54.26
62617;BME280;62539;51.190;6.808;2023-04-30T05:35:36;102002.88;;;19.68;54.37
62617;BME280;62539;51.190;6.808;2023-04-30T05:38:01;102006.41;;;19.69;54.19
62617;BME280;62539;51.190;6.808;2023-04-30T05:40:28;102008.16;;;19.68;54.02
62617;BME280;62539;51.190;6.808;2023-04-30T05:42:54;102009.88;;;19.69;54.10
62617;BME280;62539;51.190;6.808;2023-04-30T05:45:20;102016.00;;;19.72;54.07
62617;BME280;62539;51.190;6.808;2023-04-30T05:47:45;102002.75;;;19.75;54.01
62617;BME280;62539;51.190;6.808;2023-04-30T05:50:11;102004.50;;;19.76;54.08
62617;BME280;62539;51.190;6.808;2023-04-30T05:52:37;102010.59;;;19.78;54.03
62617;BME280;62539;51.190;6.808;2023-04-30T05:55:03;102007.06;;;19.79;54.07
62617;BME280;62539;51.190;6.808;2023-04-30T05:57:29;102004.44;;;19.79;54.21
62617;BME280;62539;51.190;6.808;2023-04-30T05:59:55;102002.63;;;19.81;54.10
62617;BME280;62539;51.190;6.808;2023-04-30T06:02:20;102014.06;;;19.81;54.19
62617;BME280;62539;51.190;6.808;2023-04-30T06:04:46;102013.16;;;19.82;54.21
62617;BME280;62539;51.190;6.808;2023-04-30T06:07:12;102018.38;;;19.84;53.91
62617;BME280;62539;51.190;6.808;2023-04-30T06:09:37;102014.84;;;19.85;54.65
62617;BME280;62539;51.190;6.808;2023-04-30T06:12:03;102012.19;;;19.87;53.82
62617;BME280;62539;51.190;6.808;2023-04-30T06:14:28;102006.88;;;19.88;53.78
62617;BME280;62539;51.190;6.808;2023-04-30T06:16:54;102006.00;;;19.91;53.43
62617;BME280;62539;51.190;6.808;2023-04-30T06:19:20;102007.69;;;19.93;53.59
62617;BME280;62539;51.190;6.808;2023-04-30T06:21:45;102018.16;;;19.96;53.27
62617;BME280;62539;51.190;6.808;2023-04-30T06:24:10;102012.00;;;19.97;53.48
62617;BME280;62539;51.190;6.808;2023-04-30T06:26:36;102002.28;;;20.00;53.77
62617;BME280;62539;51.190;6.808;2023-04-30T06:29:02;102001.41;;;20.01;53.55
62617;BME280;62539;51.190;6.808;2023-04-30T06:31:27;101996.97;;;20.03;53.34
62617;BME280;62539;51.190;6.808;2023-04-30T06:33:52;101995.16;;;20.05;53.37
62617;BME280;62539;51.190;6.808;2023-04-30T06:36:18;102002.09;;;20.10;53.43
62617;BME280;62539;51.190;6.808;2023-04-30T06:38:44;102001.13;;;20.13;53.34
62617;BME280;62539;51.190;6.808;2023-04-30T06:41:11;101997.59;;;20.16;53.43
62617;BME280;62539;51.190;6.808;2023-04-30T06:43:36;101999.25;;;20.20;53.59
62617;BME280;62539;51.190;6.808;2023-04-30T06:46:02;101989.56;;;20.20;53.83
62617;BME280;62539;51.190;6.808;2023-04-30T06:48:27;101995.66;;;20.24;53.74
62617;BME280;62539;51.190;6.808;2023-04-30T06:50:53;101992.94;;;20.27;53.63
62617;BME280;62539;51.190;6.808;2023-04-30T06:53:18;101996.34;;;20.31;53.68
62617;BME280;62539;51.190;6.808;2023-04-30T06:55:44;101994.56;;;20.33;53.73
62617;BME280;62539;51.190;6.808;2023-04-30T06:58:13;101990.13;;;20.35;53.61
62617;BME280;62539;51.190;6.808;2023-04-30T07:00:39;102002.38;;;20.36;53.73
62617;BME280;62539;51.190;6.808;2023-04-30T07:03:04;102002.38;;;20.37;53.75
62617;BME280;62539;51.190;6.808;2023-04-30T07:05:30;102005.84;;;20.39;53.71
62617;BME280;62539;51.190;6.808;2023-04-30T07:07:57;101996.16;;;20.40;53.91
62617;BME280;62539;51.190;6.808;2023-04-30T07:10:23;101990.03;;;20.39;53.62
62617;BME280;62539;51.190;6.808;2023-04-30T07:12:49;101996.16;;;20.40;53.46
62617;BME280;62539;51.190;6.808;2023-04-30T07:15:14;101996.16;;;20.40;53.19
62617;BME280;62539;51.190;6.808;2023-04-30T07:17:40;101992.66;;;20.39;52.77
62617;BME280;62539;51.190;6.808;2023-04-30T07:20:07;101991.72;;;20.42;53.13
62617;BME280;62539;51.190;6.808;2023-04-30T07:22:33;101983.72;;;20.45;53.46
62617;BME280;62539;51.190;6.808;2023-04-30T07:24:59;101990.66;;;20.49;53.47
62617;BME280;62539;51.190;6.808;2023-04-30T07:27:25;101985.31;;;20.54;53.50
62617;BME280;62539;51.190;6.808;2023-04-30T07:29:52;101981.84;;;20.50;49.62
62617;BME280;62539;51.190;6.808;2023-04-30T07:32:18;101979.09;;;20.17;46.63
62617;BME280;62539;51.190;6.808;2023-04-30T07:34:44;101981.63;;;19.78;46.73
62617;BME280;62539;51.190;6.808;2023-04-30T07:37:10;101978.69;;;19.49;46.44
62617;BME280;62539;51.190;6.808;2023-04-30T07:39:35;101982.66;;;19.25;46.64
62617;BME280;62539;51.190;6.808;2023-04-30T07:42:01;101982.88;;;19.13;48.13
62617;BME280;62539;51.190;6.808;2023-04-30T07:44:28;101980.44;;;19.00;47.25
62617;BME280;62539;51.190;6.808;2023-04-30T07:46:54;101982.50;;;18.81;47.01
62617;BME280;62539;51.190;6.808;2023-04-30T07:49:20;101986.16;;;18.71;47.22
62617;BME280;62539;51.190;6.808;2023-04-30T07:51:45;101983.69;;;18.60;47.42
62617;BME280;62539;51.190;6.808;2023-04-30T07:54:11;101982.97;;;18.51;47.68
62617;BME280;62539;51.190;6.808;2023-04-30T07:56:37;101984.81;;;18.45;47.62
62617;BME280;62539;51.190;6.808;2023-04-30T07:59:02;101975.31;;;18.36;47.26
62617;BME280;62539;51.190;6.808;2023-04-30T08:01:28;101981.50;;;18.32;47.98
62617;BME280;62539;51.190;6.808;2023-04-30T08:03:53;101978.00;;;18.31;48.27
62617;BME280;62539;51.190;6.808;2023-04-30T08:06:18;101988.53;;;18.30;48.31
62617;BME280;62539;51.190;6.808;2023-04-30T08:08:44;101979.84;;;18.23;48.43
62617;BME280;62539;51.190;6.808;2023-04-30T08:11:10;101980.78;;;18.20;48.46
62617;BME280;62539;51.190;6.808;2023-04-30T08:13:36;101976.41;;;18.19;47.87
62617;BME280;62539;51.190;6.808;2023-04-30T08:16:01;101976.38;;;18.21;48.22
62617;BME280;62539;51.190;6.808;2023-04-30T08:18:28;101989.47;;;18.26;49.01
62617;BME280;62539;51.190;6.808;2023-04-30T08:20:53;101978.91;;;18.29;48.93
62617;BME280;62539;51.190;6.808;2023-04-30T08:23:19;101984.97;;;18.34;49.10
62617;BME280;62539;51.190;6.808;2023-04-30T08:25:44;101980.53;;;18.39;49.19
62617;BME280;62539;51.190;6.808;2023-04-30T08:28:10;101975.22;;;18.42;48.97
62617;BME280;62539;51.190;6.808;2023-04-30T08:30:35;101971.66;;;18.46;49.08
62617;BME280;62539;51.190;6.808;2023-04-30T08:33:01;101980.38;;;18.48;47.92
62617;BME280;62539;51.190;6.808;2023-04-30T08:35:26;101975.97;;;18.49;48.54
62617;BME280;62539;51.190;6.808;2023-04-30T08:37:53;101975.94;;;18.54;47.83
62617;BME280;62539;51.190;6.808;2023-04-30T08:40:19;101972.38;;;18.56;47.89
62617;BME280;62539;51.190;6.808;2023-04-30T08:42:49;101974.94;;;18.59;47.55
62617;BME280;62539;51.190;6.808;2023-04-30T08:45:24;101971.44;;;18.59;47.18
62617;BME280;62539;51.190;6.808;2023-04-30T08:47:50;101970.59;;;18.58;47.34
62617;BME280;62539;51.190;6.808;2023-04-30T08:50:16;101967.03;;;18.62;47.49
62617;BME280;62539;51.190;6.808;2023-04-30T08:52:42;101973.97;;;18.66;47.44
62617;BME280;62539;51.190;6.808;2023-04-30T08:55:08;101971.25;;;18.73;47.42
62617;BME280;62539;51.190;6.808;2023-04-30T08:57:35;101966.78;;;18.78;47.22
62617;BME280;62539;51.190;6.808;2023-04-30T09:00:02;101965.78;;;18.85;47.05
62617;BME280;62539;51.190;6.808;2023-04-30T09:02:31;101963.03;;;18.91;46.73
62617;BME280;62539;51.190;6.808;2023-04-30T09:04:57;101965.56;;;18.99;46.54
62617;BME280;62539;51.190;6.808;2023-04-30T09:07:23;101971.59;;;19.04;46.06
62617;BME280;62539;51.190;6.808;2023-04-30T09:09:52;101967.97;;;19.12;46.57
62617;BME280;62539;51.190;6.808;2023-04-30T09:12:18;101961.72;;;19.19;46.63
62617;BME280;62539;51.190;6.808;2023-04-30T09:15:01;101962.41;;;19.29;46.42
62617;BME280;62539;51.190;6.808;2023-04-30T09:17:29;101970.16;;;19.36;46.08
62617;BME280;62539;51.190;6.808;2023-04-30T09:20:08;101961.25;;;19.44;45.06
62617;BME280;62539;51.190;6.808;2023-04-30T09:22:36;101955.03;;;19.48;45.23
62617;BME280;62539;51.190;6.808;2023-04-30T09:25:03;101955.81;;;19.53;45.37
62617;BME280;62539;51.190;6.808;2023-04-30T09:27:29;101956.56;;;19.60;45.12
62617;BME280;62539;51.190;6.808;2023-04-30T09:29:55;101950.28;;;19.67;45.60
62617;BME280;62539;51.190;6.808;2023-04-30T09:32:20;101946.56;;;19.76;45.02
62617;BME280;62539;51.190;6.808;2023-04-30T09:34:46;101939.38;;;19.84;45.13
62617;BME280;62539;51.190;6.808;2023-04-30T09:37:12;101937.47;;;19.92;44.89
62617;BME280;62539;51.190;6.808;2023-04-30T09:39:53;101932.06;;;19.98;44.78
62617;BME280;62539;51.190;6.808;2023-04-30T09:42:19;101926.69;;;20.05;44.51
62617;BME280;62539;51.190;6.808;2023-04-30T09:44:45;101923.06;;;20.09;44.24
62617;BME280;62539;51.190;6.808;2023-04-30T09:47:16;101922.94;;;20.15;43.91
62617;BME280;62539;51.190;6.808;2023-04-30T09:49:46;101921.94;;;20.21;44.28
62617;BME280;62539;51.190;6.808;2023-04-30T09:52:15;101924.38;;;20.29;43.72
62617;BME280;62539;51.190;6.808;2023-04-30T09:54:43;101919.78;;;20.37;44.20
62617;BME280;62539;51.190;6.808;2023-04-30T09:57:10;101919.56;;;20.46;44.32
62617;BME280;62539;51.190;6.808;2023-04-30T09:59:42;101919.41;;;20.52;43.89
62617;BME280;62539;51.190;6.808;2023-04-30T10:02:09;101924.44;;;20.63;44.04
62617;BME280;62539;51.190;6.808;2023-04-30T10:04:41;101920.66;;;20.74;43.77
62617;BME280;62539;51.190;6.808;2023-04-30T10:07:15;101914.31;;;20.82;43.91
62617;BME280;62539;51.190;6.808;2023-04-30T10:09:54;101917.53;;;20.94;43.81
62617;BME280;62539;51.190;6.808;2023-04-30T10:12:36;101919.00;;;21.06;44.37
62617;BME280;62539;51.190;6.808;2023-04-30T10:15:14;101914.22;;;21.19;45.11
62617;BME280;62539;51.190;6.808;2023-04-30T10:17:50;101911.25;;;21.31;45.29
62617;BME280;62539;51.190;6.808;2023-04-30T10:20:23;101904.06;;;21.36;45.28
62617;BME280;62539;51.190;6.808;2023-04-30T10:22:52;101904.66;;;21.46;45.75
62617;BME280;62539;51.190;6.808;2023-04-30T10:25:18;101901.75;;;21.55;45.81
62617;BME280;62539;51.190;6.808;2023-04-30T10:27:44;101903.28;;;21.64;45.92
62617;BME280;62539;51.190;6.808;2023-04-30T10:30:10;101899.59;;;21.70;45.57
62617;BME280;62539;51.190;6.808;2023-04-30T10:35:45;101895.72;;;21.82;45.89
62617;BME280;62539;51.190;6.808;2023-04-30T10:38:22;101890.16;;;21.91;46.12
62617;BME280;62539;51.190;6.808;2023-04-30T10:40:54;101887.25;;;21.99;45.80
62617;BME280;62539;51.190;6.808;2023-04-30T10:43:25;101886.22;;;22.05;46.01
62617;BME280;62539;51.190;6.808;2023-04-30T10:45:51;101889.63;;;22.08;46.36
62617;BME280;62539;51.190;6.808;2023-04-30T10:48:16;101876.16;;;22.16;46.44
62617;BME280;62539;51.190;6.808;2023-04-30T10:50:50;101881.16;;;22.25;46.25
62617;BME280;62539;51.190;6.808;2023-04-30T10:53:18;101879.13;;;22.34;46.48
62617;BME280;62539;51.190;6.808;2023-04-30T10:56:06;101866.63;;;22.39;46.35
62617;BME280;62539;51.190;6.808;2023-04-30T10:58:39;101871.66;;;22.46;46.24
62617;BME280;62539;51.190;6.808;2023-04-30T11:01:11;101863.50;;;22.54;46.37
62617;BME280;62539;51.190;6.808;2023-04-30T11:03:40;101858.72;;;22.64;45.97
62617;BME280;62539;51.190;6.808;2023-04-30T11:06:14;101861.34;;;22.66;45.89
62617;BME280;62539;51.190;6.808;2023-04-30T11:08:45;101855.94;;;22.69;45.81
62617;BME280;62539;51.190;6.808;2023-04-30T11:11:11;101854.91;;;22.73;45.70
62617;BME280;62539;51.190;6.808;2023-04-30T11:13:46;101851.13;;;22.80;45.41
62617;BME280;62539;51.190;6.808;2023-04-30T11:16:28;101843.78;;;22.88;45.53
62617;BME280;62539;51.190;6.808;2023-04-30T11:19:04;101843.69;;;22.92;45.53
62617;BME280;62539;51.190;6.808;2023-04-30T11:21:40;101843.38;;;22.99;45.49
62617;BME280;62539;51.190;6.808;2023-04-30T11:24:06;101842.19;;;23.08;45.22
62617;BME280;62539;51.190;6.808;2023-04-30T11:27:03;101840.13;;;23.16;45.43
62617;BME280;62539;51.190;6.808;2023-04-30T11:29:30;101839.16;;;23.19;45.38
62617;BME280;62539;51.190;6.808;2023-04-30T11:31:59;101840.63;;;23.28;44.97
62617;BME280;62539;51.190;6.808;2023-04-30T11:34:25;101835.44;;;23.25;44.91
62617;BME280;62539;51.190;6.808;2023-04-30T11:36:53;101843.03;;;23.34;44.78
62617;BME280;62539;51.190;6.808;2023-04-30T11:39:24;101836.88;;;23.33;45.05
62617;BME280;62539;51.190;6.808;2023-04-30T11:41:53;101834.28;;;23.32;45.25
62617;BME280;62539;51.190;6.808;2023-04-30T11:44:25;101839.47;;;23.35;45.10
62617;BME280;62539;51.190;6.808;2023-04-30T11:46:51;101828.53;;;23.44;44.87
62617;BME280;62539;51.190;6.808;2023-04-30T11:49:17;101832.44;;;23.58;44.57
62617;BME280;62539;51.190;6.808;2023-04-30T11:51:47;101824.53;;;23.56;44.28
62617;BME280;62539;51.190;6.808;2023-04-30T11:54:14;101830.81;;;23.54;44.71
62617;BME280;62539;51.190;6.808;2023-04-30T11:56:45;101827.38;;;23.52;44.57
62617;BME280;62539;51.190;6.808;2023-04-30T11:59:15;101814.25;;;23.48;44.56
62617;BME280;62539;51.190;6.808;2023-04-30T12:01:42;101817.59;;;23.54;44.67
62617;BME280;62539;51.190;6.808;2023-04-30T12:04:08;101811.00;;;23.64;44.33
62617;BME280;62539;51.190;6.808;2023-04-30T12:06:34;101809.03;;;23.69;44.05
62617;BME280;62539;51.190;6.808;2023-04-30T12:09:01;101810.56;;;23.75;44.33
62617;BME280;62539;51.190;6.808;2023-04-30T12:11:31;101808.13;;;23.91;44.07
62617;BME280;62539;51.190;6.808;2023-04-30T12:14:08;101804.03;;;24.06;43.69
62617;BME280;62539;51.190;6.808;2023-04-30T12:16:47;101795.47;;;24.20;43.48
62617;BME280;62539;51.190;6.808;2023-04-30T12:19:15;101801.97;;;24.33;43.31
62617;BME280;62539;51.190;6.808;2023-04-30T12:21:42;101789.91;;;24.47;43.09
62617;BME280;62539;51.190;6.808;2023-04-30T12:24:12;101793.75;;;24.60;42.66
62617;BME280;62539;51.190;6.808;2023-04-30T12:26:42;101790.44;;;24.55;42.79
62617;BME280;62539;51.190;6.808;2023-04-30T12:31:38;101791.25;;;24.36;42.81
62617;BME280;62539;51.190;6.808;2023-04-30T12:34:08;101793.38;;;24.49;42.83
62617;BME280;62539;51.190;6.808;2023-04-30T12:36:38;101787.94;;;24.73;42.21
62617;BME280;62539;51.190;6.808;2023-04-30T12:39:08;101783.66;;;24.89;42.13
62617;BME280;62539;51.190;6.808;2023-04-30T12:41:38;101791.69;;;25.07;41.99
62617;BME280;62539;51.190;6.808;2023-04-30T12:46:40;101780.94;;;25.10;41.86
62617;BME280;62539;51.190;6.808;2023-04-30T12:49:06;101782.22;;;25.20;41.34
62617;BME280;62539;51.190;6.808;2023-04-30T12:51:34;101774.03;;;25.44;41.12
62617;BME280;62539;51.190;6.808;2023-04-30T12:54:00;101770.16;;;25.51;41.19
62617;BME280;62539;51.190;6.808;2023-04-30T12:56:26;101774.75;;;25.67;40.67
62617;BME280;62539;51.190;6.808;2023-04-30T12:58:51;101777.56;;;25.81;40.66
62617;BME280;62539;51.190;6.808;2023-04-30T13:01:18;101775.81;;;26.00;40.27
62617;BME280;62539;51.190;6.808;2023-04-30T13:03:45;101770.06;;;25.90;40.60
62617;BME280;62539;51.190;6.808;2023-04-30T13:06:11;101761.75;;;26.15;39.90
62617;BME280;62539;51.190;6.808;2023-04-30T13:08:37;101764.25;;;26.36;39.73
62617;BME280;62539;51.190;6.808;2023-04-30T13:11:02;101766.00;;;26.53;39.19
62617;BME280;62539;51.190;6.808;2023-04-30T13:13:28;101762.53;;;26.68;39.14
62617;BME280;62539;51.190;6.808;2023-04-30T13:15:53;101754.69;;;26.83;38.50
62617;BME280;62539;51.190;6.808;2023-04-30T13:18:19;101756.66;;;26.95;38.31